Larkspur — C6BR6 — position and weather

sailwx.info

Track history (hours):
 
Tides and Currents Weather Stations Pressure Air Temp Water Temp Dewpoint Dewpoint Depression Visibility Wind Speed Wind Dir Waves Ship Positions

Larkspur

Operator: Transeuropa Lines

Last reported at 2019-Jan-20 18:27 UTC. Time now 2019-Jan-24 07:20 UTC.
Position N 29°21' W 094°43'.

Length 225 m; draft 11.8 m.

Type: Tanker. MMSI: 311000344.

Date/timePositionNaut miles runAvg speedWind from/ knotsBaromVisibWave heightAir tempDewpointWater temp
2019-Jan-20 18:27N 29°21' W 094°43'510.4
2019-Jan-20 18:00N 29°22' W 094°48'610.9
2019-Jan-20 17:25N 29°28' W 094°51'410.6
2019-Jan-20 17:00N 29°32' W 094°54'5 9.8
2019-Jan-20 16:30N 29°36' W 094°57'5 9.1
2019-Jan-20 16:00N 29°40' W 094°59'4 7.5
2019-Jan-20 15:29N 29°43' W 095°01'3 7.0
2019-Jan-20 15:00N 29°45' W 095°04'2 5.0
2019-Jan-20 14:30N 29°44' W 095°07'3 4.9
2019-Jan-20 13:56N 29°45' W 095°10'2 3.9
2019-Jan-20 13:25N 29°44' W 095°12'  
2019-Jan-18 02:16N 29°44' W 095°12'0 0.0
2019-Jan-16 16:29N 29°44' W 095°12'0 0.0
2019-Jan-16 16:00N 29°44' W 095°12'0 0.0
2019-Jan-16 15:30N 29°44' W 095°12'0 0.0
2019-Jan-16 15:01N 29°44' W 095°12'0 0.1
2019-Jan-16 14:28N 29°44' W 095°12'1 2.3
2019-Jan-16 13:59N 29°45' W 095°11'2 4.6
2019-Jan-16 13:30N 29°44' W 095°09'3 6.3
2019-Jan-16 13:00N 29°46' W 095°05'4 7.0
2019-Jan-16 12:30N 29°44' W 095°02'4 7.7
2019-Jan-16 12:01N 29°41' W 094°59'611.6
2019-Jan-16 11:30N 29°36' W 094°57'611.9
2019-Jan-16 11:01N 29°31' W 094°53'611.8
2019-Jan-16 10:31N 29°25' W 094°50'611.4
2019-Jan-16 10:01N 29°21' W 094°46'611.0
2019-Jan-16 09:31N 29°20' W 094°40'612.1
2019-Jan-16 09:00N 29°16' W 094°34'2 4.7
2019-Jan-16 08:30N 29°16' W 094°32'1 0.8
2019-Jan-16 07:42N 29°17' W 094°32'0 0.0
2019-Jan-16 07:27N 29°17' W 094°32'0 0.0
2019-Jan-16 07:00N 29°17' W 094°32'0 0.0
2019-Jan-16 06:30N 29°17' W 094°32'0 0.0
2019-Jan-16 06:00N 29°17' W 094°32'0 0.0
2019-Jan-16 05:27N 29°17' W 094°32'0 0.0
2019-Jan-16 04:57N 29°16' W 094°32'0 0.0
2019-Jan-16 04:30N 29°16' W 094°32'0 0.0
2019-Jan-16 03:54N 29°16' W 094°32'0 0.0
2019-Jan-16 03:30N 29°16' W 094°32'0 0.0
2019-Jan-16 03:00N 29°17' W 094°32'0 0.0
2019-Jan-16 02:27N 29°17' W 094°32'0 0.0
2019-Jan-16 01:57N 29°17' W 094°32'0 0.0
2019-Jan-16 01:12N 29°17' W 094°32'0 0.0
2019-Jan-16 00:51N 29°17' W 094°32'0 0.0
2019-Jan-16 00:24N 29°17' W 094°32'0 0.0
2019-Jan-15 23:06N 29°17' W 094°32'0 0.0
2019-Jan-15 22:12N 29°17' W 094°32'0 0.0
2019-Jan-15 21:42N 29°16' W 094°32'0 0.2
2019-Jan-15 21:17N 29°16' W 094°32'2 5.4
2019-Jan-15 20:59N 29°15' W 094°31'6 9.3
2019-Jan-15 20:20N 29°10' W 094°26'611.1
2019-Jan-15 19:48N 29°05' W 094°25'713.9
2019-Jan-15 19:16N 28°57' W 094°26'413.8
2019-Jan-15 19:00N 28°53' W 094°26'2311.6
2019-Jan-15 16:59N 28°30' W 094°24'711.7
2019-Jan-15 16:23N 28°23' W 094°24'816.0
2019-Jan-15 15:53N 28°15' W 094°25'816.3
2019-Jan-15 15:23N 28°07' W 094°25'2516.2
2019-Jan-15 13:49N 27°42' W 094°23'  
2019-Jan-11 21:24N 09°37' W 079°57'512.4
2019-Jan-11 21:00N 09°32' W 079°56'612.4
2019-Jan-11 20:30N 09°26' W 079°55'611.8
2019-Jan-11 20:00N 09°20' W 079°55'3 6.2
2019-Jan-11 19:30N 09°17' W 079°55'4 1.2
2019-Jan-11 16:32N 09°14' W 079°55'0 4.7
2019-Jan-11 16:30N 09°13' W 079°55'4 7.1
2019-Jan-11 16:00N 09°11' W 079°53'  
Track history (hours):
 
Tides and Currents Weather Stations Pressure Air Temp Water Temp Dewpoint Dewpoint Depression Visibility Wind Speed Wind Dir Waves Ship Positions

Larkspur

Operator: Transeuropa Lines

Last reported at 2019-Jan-20 18:27 UTC. Time now 2019-Jan-24 07:20 UTC.
Position N 29°21' W 094°43'.

Length 225 m; draft 11.8 m.

Type: Tanker. MMSI: 311000344.

Date/timePositionNaut miles runAvg speedWind from/ knotsBaromVisibWave heightAir tempDewpointWater temp
2019-Jan-20 18:27N 29°21' W 094°43'510.4
2019-Jan-20 18:00N 29°22' W 094°48'610.9
2019-Jan-20 17:25N 29°28' W 094°51'410.6
2019-Jan-20 17:00N 29°32' W 094°54'5 9.8
2019-Jan-20 16:30N 29°36' W 094°57'5 9.1
2019-Jan-20 16:00N 29°40' W 094°59'4 7.5
2019-Jan-20 15:29N 29°43' W 095°01'3 7.0
2019-Jan-20 15:00N 29°45' W 095°04'2 5.0
2019-Jan-20 14:30N 29°44' W 095°07'3 4.9
2019-Jan-20 13:56N 29°45' W 095°10'2 3.9
2019-Jan-20 13:25N 29°44' W 095°12'  
2019-Jan-18 02:16N 29°44' W 095°12'0 0.0
2019-Jan-16 16:29N 29°44' W 095°12'0 0.0
2019-Jan-16 16:00N 29°44' W 095°12'0 0.0
2019-Jan-16 15:30N 29°44' W 095°12'0 0.0
2019-Jan-16 15:01N 29°44' W 095°12'0 0.1
2019-Jan-16 14:28N 29°44' W 095°12'1 2.3
2019-Jan-16 13:59N 29°45' W 095°11'2 4.6
2019-Jan-16 13:30N 29°44' W 095°09'3 6.3
2019-Jan-16 13:00N 29°46' W 095°05'4 7.0
2019-Jan-16 12:30N 29°44' W 095°02'4 7.7
2019-Jan-16 12:01N 29°41' W 094°59'611.6
2019-Jan-16 11:30N 29°36' W 094°57'611.9
2019-Jan-16 11:01N 29°31' W 094°53'611.8
2019-Jan-16 10:31N 29°25' W 094°50'611.4
2019-Jan-16 10:01N 29°21' W 094°46'611.0
2019-Jan-16 09:31N 29°20' W 094°40'612.1
2019-Jan-16 09:00N 29°16' W 094°34'2 4.7
2019-Jan-16 08:30N 29°16' W 094°32'1 0.8
2019-Jan-16 07:42N 29°17' W 094°32'0 0.0
2019-Jan-16 07:27N 29°17' W 094°32'0 0.0
2019-Jan-16 07:00N 29°17' W 094°32'0 0.0
2019-Jan-16 06:30N 29°17' W 094°32'0 0.0
2019-Jan-16 06:00N 29°17' W 094°32'0 0.0
2019-Jan-16 05:27N 29°17' W 094°32'0 0.0
2019-Jan-16 04:57N 29°16' W 094°32'0 0.0
2019-Jan-16 04:30N 29°16' W 094°32'0 0.0
2019-Jan-16 03:54N 29°16' W 094°32'0 0.0
2019-Jan-16 03:30N 29°16' W 094°32'0 0.0
2019-Jan-16 03:00N 29°17' W 094°32'0 0.0
2019-Jan-16 02:27N 29°17' W 094°32'0 0.0
2019-Jan-16 01:57N 29°17' W 094°32'0 0.0
2019-Jan-16 01:12N 29°17' W 094°32'0 0.0
2019-Jan-16 00:51N 29°17' W 094°32'0 0.0
2019-Jan-16 00:24N 29°17' W 094°32'0 0.0
2019-Jan-15 23:06N 29°17' W 094°32'0 0.0
2019-Jan-15 22:12N 29°17' W 094°32'0 0.0
2019-Jan-15 21:42N 29°16' W 094°32'0 0.2
2019-Jan-15 21:17N 29°16' W 094°32'2 5.4
2019-Jan-15 20:59N 29°15' W 094°31'6 9.3
2019-Jan-15 20:20N 29°10' W 094°26'611.1
2019-Jan-15 19:48N 29°05' W 094°25'713.9
2019-Jan-15 19:16N 28°57' W 094°26'413.8
2019-Jan-15 19:00N 28°53' W 094°26'2311.6
2019-Jan-15 16:59N 28°30' W 094°24'711.7
2019-Jan-15 16:23N 28°23' W 094°24'816.0
2019-Jan-15 15:53N 28°15' W 094°25'816.3
2019-Jan-15 15:23N 28°07' W 094°25'2516.2
2019-Jan-15 13:49N 27°42' W 094°23'  
2019-Jan-11 21:24N 09°37' W 079°57'512.4
2019-Jan-11 21:00N 09°32' W 079°56'612.4
2019-Jan-11 20:30N 09°26' W 079°55'611.8
2019-Jan-11 20:00N 09°20' W 079°55'3 6.2
2019-Jan-11 19:30N 09°17' W 079°55'4 1.2
2019-Jan-11 16:32N 09°14' W 079°55'0 4.7
2019-Jan-11 16:30N 09°13' W 079°55'4 7.1
2019-Jan-11 16:00N 09°11' W 079°53'  

Dump ship's entire track history